createdAt,value
2022-12-16T00:03:59.449Z,-7.60
2022-12-16T00:09:02.120Z,-7.80
2022-12-16T00:14:04.701Z,-7.70
2022-12-16T00:19:07.131Z,-7.80
2022-12-16T00:24:09.425Z,-7.60
2022-12-16T00:29:12.205Z,-7.50
2022-12-16T00:34:15.513Z,-7.60
2022-12-16T00:39:17.897Z,-7.50
2022-12-16T00:44:20.135Z,-7.30
2022-12-16T00:49:22.373Z,-7.00
2022-12-16T00:54:24.603Z,-7.00
2022-12-16T00:59:26.834Z,-6.80
2022-12-16T01:04:29.433Z,-6.60
2022-12-16T01:09:31.781Z,-6.60
2022-12-16T01:14:34.112Z,-6.60
2022-12-16T01:19:36.352Z,-6.70
2022-12-16T01:24:38.590Z,-6.80
2022-12-16T01:29:41.622Z,-6.90
2022-12-16T01:34:47.332Z,-7.00
2022-12-16T01:39:53.275Z,-7.00
2022-12-16T01:44:56.325Z,-7.10
2022-12-16T01:50:14.886Z,-7.10
2022-12-16T01:55:24.092Z,-7.00
2022-12-16T02:00:26.505Z,-7.00
2022-12-16T02:05:29.908Z,-7.10
2022-12-16T02:10:44.186Z,-6.80
2022-12-16T02:16:01.946Z,-7.00
2022-12-16T02:21:47.140Z,-6.70
2022-12-16T02:27:20.537Z,-6.50
2022-12-16T02:32:34.761Z,-6.20
2022-12-16T02:37:42.907Z,-6.10
2022-12-16T02:42:49.949Z,-5.90
2022-12-16T02:47:54.500Z,-5.80
2022-12-16T02:52:58.706Z,-5.70
2022-12-16T02:58:19.723Z,-5.70
2022-12-16T03:03:31.343Z,-5.50
2022-12-16T03:08:39.411Z,-5.60
2022-12-16T03:13:46.360Z,-5.50
2022-12-16T03:18:54.801Z,-5.50
2022-12-16T03:24:07.207Z,-5.50
2022-12-16T03:29:21.282Z,-5.40
2022-12-16T03:34:35.091Z,-5.40
2022-12-16T03:39:43.755Z,-5.20
2022-12-16T03:44:47.807Z,-5.10
2022-12-16T03:49:50.054Z,-5.10
2022-12-16T03:54:52.284Z,-5.00
2022-12-16T03:59:54.504Z,-4.90
2022-12-16T04:04:56.785Z,-4.90
2022-12-16T04:09:59.290Z,-4.90
2022-12-16T04:15:39.668Z,-4.90
2022-12-16T04:21:11.280Z,-4.80
2022-12-16T04:26:13.744Z,-4.80
2022-12-16T04:31:16.049Z,-4.90
2022-12-16T04:36:37.081Z,-4.80
2022-12-16T04:41:58.177Z,-4.90
2022-12-16T04:47:19.062Z,-4.80
2022-12-16T04:52:40.340Z,-4.80
2022-12-16T04:58:10.522Z,-4.80
2022-12-16T05:03:32.010Z,-4.70
2022-12-16T05:08:53.252Z,-4.70
2022-12-16T05:14:14.928Z,-4.70
2022-12-16T05:19:36.153Z,-4.70
2022-12-16T05:24:57.346Z,-4.60
2022-12-16T05:30:19.844Z,-4.60
2022-12-16T05:35:41.088Z,-4.60
2022-12-16T05:41:01.906Z,-4.50
2022-12-16T05:46:22.769Z,-4.40
2022-12-16T05:51:43.773Z,-4.50
2022-12-16T05:57:04.692Z,-4.40
2022-12-16T06:02:25.572Z,-4.40
2022-12-16T06:07:46.499Z,-4.40
2022-12-16T06:13:07.304Z,-4.30
2022-12-16T06:18:28.740Z,-4.30
2022-12-16T06:23:50.009Z,-4.20
2022-12-16T06:29:10.988Z,-4.30
2022-12-16T06:34:32.037Z,-4.20
2022-12-16T06:39:53.350Z,-4.20
2022-12-16T06:45:14.518Z,-4.20
2022-12-16T06:50:35.426Z,-4.20
2022-12-16T06:55:56.476Z,-4.20
2022-12-16T07:01:17.580Z,-4.10
2022-12-16T07:06:38.443Z,-4.10
2022-12-16T07:11:59.583Z,-4.00
2022-12-16T07:17:20.689Z,-3.90
2022-12-16T07:22:42.154Z,-3.90
2022-12-16T07:28:09.411Z,-3.80
2022-12-16T07:33:35.226Z,-3.70
2022-12-16T07:38:56.518Z,-3.70
2022-12-16T07:44:17.647Z,-3.60
2022-12-16T07:49:38.575Z,-3.50
2022-12-16T07:55:07.192Z,-3.40
2022-12-16T08:00:37.190Z,-3.20
2022-12-16T08:05:57.931Z,-3.20
2022-12-16T08:11:18.699Z,-3.10
2022-12-16T08:16:39.661Z,-3.10
2022-12-16T08:22:00.340Z,-3.00
2022-12-16T08:27:22.057Z,-3.00
2022-12-16T08:32:43.026Z,-2.90
2022-12-16T08:38:07.574Z,-2.80
2022-12-16T08:43:33.914Z,-2.70
2022-12-16T08:48:55.055Z,-2.60
2022-12-16T08:54:16.973Z,-2.50
2022-12-16T08:59:38.123Z,-2.50
2022-12-16T09:04:59.106Z,-2.30
2022-12-16T09:10:20.123Z,-2.30
2022-12-16T09:15:41.295Z,-2.30
2022-12-16T09:21:02.376Z,-2.30
2022-12-16T09:26:23.751Z,-2.20
2022-12-16T09:31:47.443Z,-2.10
2022-12-16T09:37:08.610Z,-2.00
2022-12-16T09:43:20.873Z,-1.80
2022-12-16T09:49:07.127Z,-1.70
2022-12-16T09:54:33.499Z,-1.60
2022-12-16T09:59:59.158Z,-1.60
2022-12-16T10:05:19.852Z,-1.50
2022-12-16T10:10:55.893Z,-1.40
2022-12-16T10:16:49.721Z,-1.40
2022-12-16T10:22:32.358Z,-1.30
2022-12-16T10:28:07.751Z,-1.30
2022-12-16T10:33:33.402Z,-1.30
2022-12-16T10:39:02.341Z,-1.20
2022-12-16T10:44:31.516Z,-1.20
2022-12-16T10:49:54.842Z,-1.10
2022-12-16T10:55:54.670Z,-1.10
2022-12-16T11:01:17.036Z,-1.10
2022-12-16T11:06:59.239Z,-0.90
2022-12-16T11:12:36.349Z,-1.00
2022-12-16T11:17:57.038Z,-1.00
2022-12-16T11:23:42.798Z,-1.00
2022-12-16T11:29:03.879Z,-1.00
2022-12-16T11:34:24.645Z,-1.00
2022-12-16T11:39:50.009Z,-1.00
2022-12-16T11:45:15.027Z,-1.00
2022-12-16T11:50:37.462Z,-1.00
2022-12-16T11:56:06.869Z,-1.10
2022-12-16T12:01:46.072Z,-1.10
2022-12-16T12:07:44.221Z,-1.00
2022-12-16T12:13:20.448Z,-1.00
2022-12-16T12:19:06.394Z,-1.00
2022-12-16T12:24:40.649Z,-1.00
2022-12-16T12:30:23.535Z,-1.00
2022-12-16T12:36:15.902Z,-1.00
2022-12-16T12:41:47.817Z,-1.00
2022-12-16T12:47:18.586Z,-1.00
2022-12-16T12:53:09.083Z,-1.00
2022-12-16T12:58:32.042Z,-1.10
2022-12-16T13:03:56.133Z,-1.10
2022-12-16T13:09:18.239Z,-1.20
2022-12-16T13:14:51.361Z,-1.20
2022-12-16T13:20:14.493Z,-1.20
2022-12-16T13:25:54.480Z,-1.10
2022-12-16T13:31:25.907Z,-1.10
2022-12-16T13:36:54.158Z,-1.10
2022-12-16T13:42:19.117Z,-1.10
2022-12-16T13:47:58.423Z,-1.10
2022-12-16T13:53:21.565Z,-1.10
2022-12-16T13:59:06.145Z,-1.20
2022-12-16T14:04:29.305Z,-1.20
2022-12-16T14:10:01.190Z,-1.20
2022-12-16T14:15:32.675Z,-1.20
2022-12-16T14:21:01.027Z,-1.20
2022-12-16T14:26:22.177Z,-1.30
2022-12-16T14:31:52.720Z,-1.40
2022-12-16T14:37:17.158Z,-1.60
2022-12-16T14:42:44.570Z,-1.70
2022-12-16T14:48:05.356Z,-1.70
2022-12-16T14:53:33.684Z,-1.90
2022-12-16T14:59:14.504Z,-2.00
2022-12-16T15:04:39.743Z,-2.10
2022-12-16T15:10:06.792Z,-2.20
2022-12-16T15:15:34.518Z,-2.30
2022-12-16T15:21:03.547Z,-2.30
2022-12-16T15:26:25.402Z,-2.30
2022-12-16T15:31:51.679Z,-2.40
2022-12-16T15:37:12.638Z,-2.40
2022-12-16T15:42:48.425Z,-2.30
2022-12-16T15:48:09.922Z,-2.20
2022-12-16T15:53:35.229Z,-2.30
2022-12-16T15:58:56.350Z,-2.30
2022-12-16T16:04:18.077Z,-2.30
2022-12-16T16:09:46.193Z,-2.30
2022-12-16T16:15:07.243Z,-2.30
2022-12-16T16:20:33.342Z,-2.30
2022-12-16T16:25:57.983Z,-2.20
2022-12-16T16:31:21.479Z,-2.30
2022-12-16T16:36:42.262Z,-2.20
2022-12-16T16:42:03.414Z,-2.20
2022-12-16T16:47:33.402Z,-2.20
2022-12-16T16:52:54.354Z,-2.20
2022-12-16T16:58:15.560Z,-2.10
2022-12-16T17:03:38.702Z,-2.20
2022-12-16T17:09:00.049Z,-2.20
2022-12-16T17:14:21.250Z,-2.30
2022-12-16T17:19:42.163Z,-2.30
2022-12-16T17:25:03.209Z,-2.30
2022-12-16T17:30:31.604Z,-2.20
2022-12-16T17:35:52.705Z,-2.20
2022-12-16T17:41:13.643Z,-2.30
2022-12-16T17:46:34.671Z,-2.40
2022-12-16T17:51:55.700Z,-2.30
2022-12-16T17:57:16.892Z,-2.20
2022-12-16T18:02:40.572Z,-2.30
2022-12-16T18:08:01.762Z,-2.30
2022-12-16T18:13:22.528Z,-2.20
2022-12-16T18:18:46.309Z,-2.20
2022-12-16T18:24:07.389Z,-2.30
2022-12-16T18:29:28.302Z,-2.20
2022-12-16T18:34:49.271Z,-2.40
2022-12-16T18:40:10.311Z,-2.30
2022-12-16T18:45:31.546Z,-2.40
2022-12-16T18:50:52.569Z,-2.50
2022-12-16T18:56:22.667Z,-2.40
2022-12-16T19:01:43.926Z,-2.50
2022-12-16T19:07:04.876Z,-2.40
2022-12-16T19:12:26.025Z,-2.40
2022-12-16T19:17:46.948Z,-2.30
2022-12-16T19:23:07.893Z,-2.40
2022-12-16T19:28:33.482Z,-2.40
2022-12-16T19:33:54.635Z,-2.40
2022-12-16T19:39:17.420Z,-2.40
2022-12-16T19:44:38.542Z,-2.40
2022-12-16T19:49:59.480Z,-2.40
2022-12-16T19:55:20.802Z,-2.30
2022-12-16T20:00:41.895Z,-2.30
2022-12-16T20:06:03.000Z,-2.30
2022-12-16T20:11:27.336Z,-2.30
2022-12-16T20:16:48.287Z,-2.30
2022-12-16T20:22:12.078Z,-2.30
2022-12-16T20:27:37.302Z,-2.30
2022-12-16T20:32:58.277Z,-2.30
2022-12-16T20:38:19.340Z,-2.30
2022-12-16T20:43:40.706Z,-2.30
2022-12-16T20:49:01.965Z,-2.30
2022-12-16T20:54:30.729Z,-2.30
2022-12-16T20:59:52.052Z,-2.20
2022-12-16T21:05:12.693Z,-2.20
2022-12-16T21:10:33.781Z,-2.20
2022-12-16T21:15:56.255Z,-2.20
2022-12-16T21:21:17.335Z,-2.20
2022-12-16T21:26:38.542Z,-2.20
2022-12-16T21:31:59.383Z,-2.20
2022-12-16T21:37:20.242Z,-2.20
2022-12-16T21:42:44.145Z,-2.10
2022-12-16T21:48:05.237Z,-2.10
2022-12-16T21:53:26.225Z,-2.00
2022-12-16T21:58:47.523Z,-2.00
2022-12-16T22:04:08.786Z,-2.00
2022-12-16T22:09:30.377Z,-2.20
2022-12-16T22:14:51.610Z,-2.00
2022-12-16T22:20:12.834Z,-2.00
2022-12-16T22:25:33.714Z,-1.90
2022-12-16T22:30:56.266Z,-2.00
2022-12-16T22:36:22.368Z,-2.10
2022-12-16T22:41:43.462Z,-2.10
2022-12-16T22:47:04.428Z,-2.00
2022-12-16T22:52:25.474Z,-2.00
2022-12-16T22:57:47.484Z,-2.10
2022-12-16T23:03:08.461Z,-2.10
2022-12-16T23:08:30.071Z,-2.00
2022-12-16T23:13:51.025Z,-2.00
2022-12-16T23:19:11.996Z,-2.00
2022-12-16T23:24:32.946Z,-2.10
2022-12-16T23:29:53.805Z,-2.10
2022-12-16T23:35:17.688Z,-2.10
2022-12-16T23:40:38.775Z,-2.10
2022-12-16T23:46:02.174Z,-2.10
2022-12-16T23:51:23.362Z,-2.00
2022-12-16T23:56:44.651Z,-2.00
